Time;durP1;ratioP1;P1;durP2;ratioP2;P2;SDS_P1;SDS_P2;PMS_P1;PMS_P2;Temp;Humidity;BMP_temperature;BMP_pressure;BME280_temperature;BME280_humidity;BME280_pressure;Samples;Min_cycle;Max_cycle;Signal;HPM_P1;HPM_P2
2023/04/30 00:01:12;;;;;;;2.13;1.47;;;;;10.80;96824.00;;;;5047319;28;20266;-72
2023/04/30 00:04:02;;;;;;;1.60;1.20;;;;;10.80;96816.00;;;;5028407;28;20255;-72
2023/04/30 00:06:51;;;;;;;2.80;1.30;;;;;10.00;96814.00;;;;5015442;28;20225;-72
2023/04/30 00:09:40;;;;;;;1.40;0.90;;;;;10.10;96823.00;;;;5031812;28;20739;-72
2023/04/30 00:12:29;;;;;;;1.05;1.00;;;;;10.20;96830.00;;;;5024132;28;20407;-73
2023/04/30 00:15:18;;;;;;;1.13;1.00;;;;;10.40;96833.00;;;;5029030;28;20204;-73
2023/04/30 00:18:07;;;;;;;1.23;0.90;;;;;10.50;96822.00;;;;5014677;28;20439;-73
2023/04/30 00:20:58;;;;;;;1.30;0.93;;;;;10.80;96836.00;;;;5029109;28;20603;-73
2023/04/30 00:23:47;;;;;;;1.93;1.83;;;;;11.00;96837.00;;;;5028602;28;20780;-73
2023/04/30 00:26:36;;;;;;;1.73;1.10;;;;;11.10;96828.00;;;;5027740;28;20217;-73
2023/04/30 00:29:25;;;;;;;4.53;1.10;;;;;10.80;96819.00;;;;5028372;28;20209;-73
2023/04/30 00:32:13;;;;;;;1.57;1.13;;;;;10.50;96823.00;;;;5027865;28;20213;-73
2023/04/30 00:35:03;;;;;;;0.97;0.90;;;;;10.60;96828.00;;;;5026619;28;20202;-72
2023/04/30 00:37:53;;;;;;;1.43;1.33;;;;;10.70;96817.00;;;;5027151;28;20200;-73
2023/04/30 00:40:42;;;;;;;6.00;1.30;;;;;10.70;96814.00;;;;5047055;28;20247;-73
2023/04/30 00:43:33;;;;;;;0.90;0.90;;;;;10.50;96819.00;;;;5047742;28;20220;-72
2023/04/30 00:46:22;;;;;;;1.20;1.10;;;;;10.60;96805.00;;;;5046704;28;20217;-72
2023/04/30 00:49:11;;;;;;;2.33;0.97;;;;;10.40;96811.00;;;;5018130;28;20573;-72
2023/04/30 00:52:00;;;;;;;1.10;0.90;;;;;10.80;96817.00;;;;5028555;28;20290;-72
2023/04/30 00:54:52;;;;;;;1.03;0.97;;;;;10.70;96813.00;;;;5026419;28;20393;-72
2023/04/30 00:57:41;;;;;;;1.10;1.10;;;;;10.60;96814.00;;;;5026342;28;20688;-72
2023/04/30 01:00:30;;;;;;;4.30;1.37;;;;;10.70;96812.00;;;;5026216;28;20242;-72
2023/04/30 01:03:21;;;;;;;1.23;1.13;;;;;10.50;96813.00;;;;5028194;28;20208;-70
2023/04/30 01:06:10;;;;;;;1.47;1.37;;;;;10.40;96819.00;;;;5029705;28;20236;-69
2023/04/30 01:09:00;;;;;;;1.23;1.13;;;;;10.30;96817.00;;;;5029943;28;20196;-70
2023/04/30 01:11:56;;;;;;;2.50;1.10;;;;;10.50;96823.00;;;;5030591;28;20193;-69
2023/04/30 01:15:04;;;;;;;1.43;1.27;;;;;10.60;96825.00;;;;5031077;28;20703;-70
2023/04/30 01:17:57;;;;;;;1.20;1.10;;;;;10.50;96821.00;;;;5025949;28;20206;-69
2023/04/30 01:20:50;;;;;;;2.60;1.00;;;;;10.40;96832.00;;;;5031852;28;20590;-70
2023/04/30 01:23:49;;;;;;;1.67;1.00;;;;;10.20;96832.00;;;;5031568;28;20279;-70
2023/04/30 01:26:53;;;;;;;1.37;1.27;;;;;10.10;96827.00;;;;5030240;28;20237;-70
2023/04/30 01:29:44;;;;;;;1.50;1.40;;;;;10.30;96829.00;;;;5030938;28;20252;-70
2023/04/30 01:32:33;;;;;;;2.00;1.70;;;;;10.30;96828.00;;;;5032795;28;20208;-70
2023/04/30 01:35:23;;;;;;;2.87;1.37;;;;;10.00;96818.00;;;;5032688;28;20204;-69
2023/04/30 01:38:20;;;;;;;1.27;1.17;;;;;9.80;96826.00;;;;5028990;28;20676;-70
2023/04/30 01:41:15;;;;;;;3.07;1.17;;;;;9.90;96825.00;;;;5031108;28;20259;-70
2023/04/30 01:44:13;;;;;;;1.20;1.10;;;;;9.90;96820.00;;;;5026985;28;20205;-70
2023/04/30 01:47:06;;;;;;;1.33;1.23;;;;;10.10;96824.00;;;;5026773;28;20221;-70
2023/04/30 01:50:02;;;;;;;1.70;1.43;;;;;10.10;96829.00;;;;5026056;28;20228;-70
2023/04/30 01:52:52;;;;;;;0.97;0.97;;;;;9.80;96830.00;;;;5036206;28;20198;-70
2023/04/30 01:55:44;;;;;;;1.13;1.03;;;;;9.60;96832.00;;;;5029111;28;20228;-69
2023/04/30 01:58:33;;;;;;;1.60;1.50;;;;;9.50;96838.00;;;;5030478;28;20232;-69
2023/04/30 02:01:29;;;;;;;2.10;1.20;;;;;9.10;96837.00;;;;5029604;28;20275;-69
2023/04/30 02:04:19;;;;;;;1.23;1.13;;;;;9.00;96845.00;;;;5028732;28;20201;-70
2023/04/30 02:07:08;;;;;;;4.20;1.60;;;;;8.80;96836.00;;;;5031105;28;20278;-71
2023/04/30 02:09:57;;;;;;;1.27;1.17;;;;;9.00;96854.00;;;;5029911;28;20228;-70
2023/04/30 02:12:46;;;;;;;1.27;1.20;;;;;9.30;96841.00;;;;5030210;28;20243;-70
2023/04/30 02:15:35;;;;;;;5.97;1.50;;;;;9.30;96853.00;;;;5030337;28;20205;-71
2023/04/30 02:18:24;;;;;;;1.87;1.50;;;;;9.40;96851.00;;;;5029863;28;20237;-71
2023/04/30 02:21:15;;;;;;;1.70;1.53;;;;;9.60;96854.00;;;;5029954;28;20639;-71
2023/04/30 02:24:04;;;;;;;1.83;1.70;;;;;9.50;96863.00;;;;5030821;28;20304;-70
2023/04/30 02:26:53;;;;;;;3.33;1.37;;;;;9.30;96859.00;;;;5029660;28;20608;-71
2023/04/30 02:29:42;;;;;;;1.67;1.53;;;;;9.40;96860.00;;;;5030096;28;20773;-71
2023/04/30 02:32:31;;;;;;;1.70;1.60;;;;;9.50;96853.00;;;;5028936;28;20676;-71
2023/04/30 02:35:20;;;;;;;1.50;1.40;;;;;9.50;96867.00;;;;5030592;28;20198;-71
2023/04/30 02:38:10;;;;;;;1.60;1.50;;;;;9.30;96863.00;;;;5030666;28;20205;-68
2023/04/30 02:40:59;;;;;;;1.77;1.47;;;;;9.60;96852.00;;;;5025727;28;20815;-70
2023/04/30 02:43:48;;;;;;;1.80;1.47;;;;;10.00;96858.00;;;;5030166;28;20299;-70
2023/04/30 02:46:37;;;;;;;1.57;1.47;;;;;9.80;96862.00;;;;5027967;28;20220;-69
2023/04/30 02:49:26;;;;;;;3.30;1.50;;;;;9.70;96868.00;;;;5038597;28;20196;-70
2023/04/30 02:52:15;;;;;;;1.77;1.63;;;;;9.60;96865.00;;;;5034910;28;20729;-70
2023/04/30 02:55:06;;;;;;;1.53;1.43;;;;;9.40;96858.00;;;;5025465;28;20197;-68
2023/04/30 02:57:55;;;;;;;1.67;1.53;;;;;9.60;96867.00;;;;5019588;28;20339;-69
2023/04/30 03:00:44;;;;;;;1.93;1.83;;;;;9.90;96871.00;;;;5029644;28;20197;-70
2023/04/30 03:03:33;;;;;;;1.60;1.50;;;;;9.80;96872.00;;;;5029647;28;20205;-70
2023/04/30 03:06:22;;;;;;;4.00;1.20;;;;;9.40;96866.00;;;;5029599;28;20221;-71
2023/04/30 03:09:11;;;;;;;1.90;1.73;;;;;9.50;96871.00;;;;5030752;28;20212;-70
2023/04/30 03:12:02;;;;;;;1.83;1.73;;;;;9.90;96880.00;;;;5030269;28;20202;-71
2023/04/30 03:14:52;;;;;;;2.80;1.67;;;;;9.90;96878.00;;;;5028917;28;20300;-71
2023/04/30 03:17:41;;;;;;;2.47;1.30;;;;;9.80;96879.00;;;;5028899;28;20275;-69
2023/04/30 03:20:30;;;;;;;1.73;1.63;;;;;9.70;96883.00;;;;5029574;28;20606;-70
2023/04/30 03:23:20;;;;;;;3.60;1.70;;;;;9.70;96877.00;;;;5029973;28;20330;-70
2023/04/30 03:26:09;;;;;;;1.93;1.83;;;;;9.50;96872.00;;;;5026397;28;20227;-70
2023/04/30 03:29:00;;;;;;;1.63;1.53;;;;;9.40;96878.00;;;;5027948;28;20700;-70
2023/04/30 03:31:50;;;;;;;2.13;1.90;;;;;9.80;96885.00;;;;5027476;28;20224;-70
2023/04/30 03:34:39;;;;;;;2.50;1.70;;;;;9.50;96882.00;;;;5029391;28;20202;-69
2023/04/30 03:37:28;;;;;;;1.80;1.70;;;;;9.70;96879.00;;;;5026849;28;20728;-68
2023/04/30 03:40:17;;;;;;;3.70;2.00;;;;;10.10;96874.00;;;;5028417;28;20197;-69
2023/04/30 03:43:06;;;;;;;1.83;1.73;;;;;10.30;96884.00;;;;5029603;28;20871;-69
2023/04/30 03:45:56;;;;;;;1.70;1.60;;;;;10.30;96888.00;;;;5027591;28;20300;-69
2023/04/30 03:48:45;;;;;;;1.43;1.33;;;;;10.30;96892.00;;;;5026107;28;20680;-69
2023/04/30 03:51:38;;;;;;;2.23;2.03;;;;;10.40;96899.00;;;;5031051;28;20208;-69
2023/04/30 03:54:27;;;;;;;1.73;1.63;;;;;10.30;96886.00;;;;5047109;28;20204;-69
2023/04/30 03:57:16;;;;;;;2.50;2.30;;;;;10.40;96882.00;;;;5026153;28;20662;-69
2023/04/30 04:00:07;;;;;;;2.20;2.00;;;;;10.50;96886.00;;;;5028462;28;20209;-69
2023/04/30 04:02:58;;;;;;;2.80;1.83;;;;;10.10;96886.00;;;;5022869;28;20269;-69
2023/04/30 04:05:47;;;;;;;4.07;2.40;;;;;10.20;96896.00;;;;5028693;28;20216;-69
2023/04/30 04:08:36;;;;;;;2.00;1.67;;;;;9.80;96899.00;;;;5046004;28;20586;-70
2023/04/30 04:11:25;;;;;;;2.37;2.17;;;;;9.70;96890.00;;;;5027127;28;20708;-69
2023/04/30 04:14:15;;;;;;;2.00;1.77;;;;;10.20;96891.00;;;;5024703;28;20592;-71
2023/04/30 04:17:05;;;;;;;1.80;1.70;;;;;10.40;96898.00;;;;5026343;28;20217;-70
2023/04/30 04:19:55;;;;;;;4.07;2.13;;;;;10.10;96883.00;;;;5024171;28;20198;-69
2023/04/30 04:22:44;;;;;;;4.43;2.43;;;;;10.00;96901.00;;;;5042466;28;20227;-71
2023/04/30 04:25:34;;;;;;;2.67;2.37;;;;;9.90;96899.00;;;;5046774;28;20204;-69
2023/04/30 04:28:23;;;;;;;3.33;2.37;;;;;10.40;96910.00;;;;5046673;28;20203;-68
2023/04/30 04:31:12;;;;;;;2.00;1.90;;;;;10.60;96919.00;;;;5022939;28;20202;-68
2023/04/30 04:34:03;;;;;;;1.87;1.77;;;;;10.70;96910.00;;;;5034395;28;20208;-68
2023/04/30 04:36:53;;;;;;;4.33;2.30;;;;;10.80;96917.00;;;;5029330;28;20217;-68
2023/04/30 04:39:43;;;;;;;2.03;1.83;;;;;10.90;96910.00;;;;5024421;28;20205;-69
2023/04/30 04:42:32;;;;;;;2.63;2.43;;;;;11.00;96904.00;;;;5031360;28;20220;-69
2023/04/30 04:45:22;;;;;;;7.73;2.30;;;;;11.40;96918.00;;;;5032492;28;20298;-70
2023/04/30 04:48:11;;;;;;;2.20;2.00;;;;;11.10;96918.00;;;;5032217;28;20197;-70
2023/04/30 04:51:00;;;;;;;2.17;1.97;;;;;10.70;96916.00;;;;5026656;28;20700;-68
2023/04/30 04:53:50;;;;;;;2.77;2.47;;;;;10.70;96918.00;;;;5031585;28;20201;-69
2023/04/30 04:56:39;;;;;;;2.60;2.40;;;;;10.80;96925.00;;;;5031657;28;20696;-71
2023/04/30 04:59:28;;;;;;;2.30;2.10;;;;;11.00;96921.00;;;;5031958;28;20278;-70
2023/04/30 05:02:17;;;;;;;2.10;2.00;;;;;11.50;96924.00;;;;5029929;28;20229;-71
2023/04/30 05:05:07;;;;;;;2.90;2.03;;;;;11.80;96931.00;;;;5031707;28;20610;-70
2023/04/30 05:07:56;;;;;;;3.23;2.30;;;;;12.00;96931.00;;;;5032225;28;20229;-71
2023/04/30 05:10:46;;;;;;;2.13;1.93;;;;;11.90;96927.00;;;;5038356;28;20234;-70
2023/04/30 05:13:35;;;;;;;2.50;2.20;;;;;11.60;96928.00;;;;5031334;28;20201;-70
2023/04/30 05:16:25;;;;;;;2.73;2.10;;;;;11.60;96926.00;;;;5030316;28;20221;-70
2023/04/30 05:19:14;;;;;;;2.87;2.13;;;;;11.80;96931.00;;;;5030134;28;20205;-71
2023/04/30 05:22:03;;;;;;;2.63;2.30;;;;;11.60;96929.00;;;;5029768;28;20228;-70
2023/04/30 05:24:52;;;;;;;2.80;2.50;;;;;12.00;96936.00;;;;5030776;28;20661;-71
2023/04/30 05:27:42;;;;;;;2.90;2.47;;;;;12.20;96940.00;;;;5029082;28;20236;-69
2023/04/30 05:30:31;;;;;;;2.40;2.20;;;;;12.60;96932.00;;;;5027537;28;20225;-69
2023/04/30 05:33:20;;;;;;;1.97;1.87;;;;;12.60;96937.00;;;;5042740;28;20712;-70
2023/04/30 05:36:09;;;;;;;2.30;2.10;;;;;12.60;96941.00;;;;5026088;28;20860;-69
2023/04/30 05:38:58;;;;;;;1.97;1.87;;;;;12.60;96936.00;;;;5022775;28;20714;-70
2023/04/30 05:41:47;;;;;;;2.00;1.90;;;;;12.50;96934.00;;;;5030937;28;20250;-70
2023/04/30 05:44:38;;;;;;;2.10;2.00;;;;;12.60;96940.00;;;;5042208;28;20213;-70
2023/04/30 05:47:27;;;;;;;2.60;2.37;;;;;12.70;96940.00;;;;5028145;28;20232;-71
2023/04/30 05:50:16;;;;;;;2.57;2.33;;;;;13.20;96944.00;;;;5024571;28;20827;-71
2023/04/30 05:53:05;;;;;;;3.27;2.97;;;;;13.60;96942.00;;;;5027088;28;20193;-71
2023/04/30 05:55:54;;;;;;;2.67;2.43;;;;;14.00;96945.00;;;;5028799;28;20639;-71
2023/04/30 05:58:43;;;;;;;2.27;1.90;;;;;14.30;96942.00;;;;5026447;28;20697;-71
2023/04/30 06:01:33;;;;;;;4.43;2.20;;;;;14.50;96941.00;;;;5025339;28;20201;-72
2023/04/30 06:04:22;;;;;;;3.40;2.40;;;;;14.80;96952.00;;;;5033678;28;20709;-72
2023/04/30 06:07:12;;;;;;;1.90;1.80;;;;;15.00;96952.00;;;;5045064;28;20425;-71
2023/04/30 06:10:01;;;;;;;3.13;1.87;;;;;15.20;96950.00;;;;5040708;28;20703;-71
2023/04/30 06:12:50;;;;;;;1.87;1.70;;;;;15.30;96954.00;;;;5029783;28;20223;-72
2023/04/30 06:15:39;;;;;;;1.40;1.30;;;;;15.50;96965.00;;;;5028852;28;20240;-71
2023/04/30 06:18:29;;;;;;;2.17;1.97;;;;;15.50;96954.00;;;;5028959;28;20209;-72
2023/04/30 06:21:19;;;;;;;1.87;1.53;;;;;15.60;96954.00;;;;5027760;28;20205;-72
2023/04/30 06:24:08;;;;;;;1.50;1.40;;;;;15.90;96948.00;;;;5025795;28;20267;-72
2023/04/30 06:26:57;;;;;;;1.40;1.30;;;;;16.10;96953.00;;;;5030680;28;20220;-72
2023/04/30 06:29:46;;;;;;;3.83;2.00;;;;;16.10;96957.00;;;;5048818;28;20208;-71
2023/04/30 06:32:35;;;;;;;2.23;1.37;;;;;16.30;96959.00;;;;5038779;28;20727;-72
2023/04/30 06:35:25;;;;;;;2.77;1.57;;;;;16.40;96947.00;;;;5022755;28;20593;-72
2023/04/30 06:38:14;;;;;;;1.60;1.50;;;;;16.20;96960.00;;;;5022670;28;20256;-72
2023/04/30 06:41:03;;;;;;;1.47;1.37;;;;;16.50;96964.00;;;;5024981;28;20216;-73
2023/04/30 06:43:52;;;;;;;2.00;1.27;;;;;16.40;96974.00;;;;5026729;28;20229;-72
2023/04/30 06:46:41;;;;;;;1.70;1.60;;;;;16.60;96970.00;;;;5013779;28;20224;-73
2023/04/30 06:49:30;;;;;;;1.40;1.23;;;;;16.90;96974.00;;;;5028104;28;20224;-72
2023/04/30 06:52:21;;;;;;;1.80;1.50;;;;;17.00;96972.00;;;;5029668;28;20247;-72
2023/04/30 06:55:10;;;;;;;1.67;1.57;;;;;17.10;97000.00;;;;5019573;28;20198;-72
2023/04/30 06:57:59;;;;;;;1.43;1.33;;;;;17.10;96980.00;;;;5020223;28;20692;-72
2023/04/30 07:00:48;;;;;;;1.53;1.43;;;;;17.10;96991.00;;;;5016148;28;20735;-72
2023/04/30 07:03:37;;;;;;;1.40;1.30;;;;;16.50;96986.00;;;;5017909;28;20229;-73
2023/04/30 07:06:28;;;;;;;1.40;1.30;;;;;17.00;96978.00;;;;5021924;28;20286;-72
2023/04/30 07:09:18;;;;;;;1.27;1.17;;;;;16.60;96967.00;;;;5024211;28;20202;-73
2023/04/30 07:12:07;;;;;;;2.10;1.50;;;;;17.60;96972.00;;;;5024521;28;20255;-73
2023/04/30 07:14:56;;;;;;;2.07;1.37;;;;;17.70;96971.00;;;;5022052;28;20247;-73
2023/04/30 07:17:45;;;;;;;1.20;1.10;;;;;17.60;96966.00;;;;5016911;28;20247;-73
2023/04/30 07:20:34;;;;;;;1.90;1.77;;;;;18.00;96966.00;;;;5024701;28;20201;-73
2023/04/30 07:23:24;;;;;;;1.40;1.30;;;;;18.30;96969.00;;;;5024726;28;20288;-73
2023/04/30 07:26:14;;;;;;;1.53;1.43;;;;;17.20;96962.00;;;;5021505;28;20222;-73
2023/04/30 07:29:04;;;;;;;2.00;1.47;;;;;17.70;96964.00;;;;5019282;28;20209;-72
2023/04/30 07:31:53;;;;;;;1.60;1.43;;;;;18.30;96958.00;;;;5021691;28;20221;-74
2023/04/30 07:34:42;;;;;;;1.90;1.70;;;;;18.90;96967.00;;;;5011660;28;20328;-75
2023/04/30 07:37:31;;;;;;;1.70;1.60;;;;;18.70;96991.00;;;;5013025;28;20248;-72
2023/04/30 07:40:21;;;;;;;1.37;1.27;;;;;18.70;96990.00;;;;5022925;28;20231;-73
2023/04/30 07:43:18;;;;;;;1.53;1.40;;;;;18.50;96974.00;;;;5023785;28;20241;-73
2023/04/30 07:46:07;;;;;;;1.47;1.37;;;;;17.10;96986.00;;;;5029464;28;20701;-70
2023/04/30 07:48:56;;;;;;;2.63;1.27;;;;;17.40;96990.00;;;;5035915;28;20197;-72
2023/04/30 07:51:45;;;;;;;1.93;1.83;;;;;18.70;96980.00;;;;5025641;28;20210;-72
2023/04/30 07:54:35;;;;;;;2.33;1.53;;;;;18.00;96990.00;;;;5031870;28;20197;-72
2023/04/30 07:57:25;;;;;;;1.73;1.63;;;;;18.30;96997.00;;;;5028663;28;20225;-70
2023/04/30 08:00:16;;;;;;;1.63;1.53;;;;;18.60;97011.00;;;;5026757;28;20209;-73
2023/04/30 08:03:05;;;;;;;1.50;1.40;;;;;18.10;97008.00;;;;5028521;28;20201;-73
2023/04/30 08:05:54;;;;;;;1.87;1.70;;;;;18.30;97023.00;;;;5025342;28;20727;-70
2023/04/30 08:08:43;;;;;;;1.63;1.47;;;;;18.00;97014.00;;;;5021117;28;20205;-73
2023/04/30 08:11:32;;;;;;;3.10;1.80;;;;;17.80;97022.00;;;;5024218;28;20610;-73
2023/04/30 08:14:21;;;;;;;2.00;1.90;;;;;17.50;97016.00;;;;5026889;28;20263;-73
2023/04/30 08:17:12;;;;;;;2.00;1.63;;;;;18.00;97015.00;;;;5022362;28;20267;-72
2023/04/30 08:20:01;;;;;;;2.50;1.70;;;;;18.70;96987.00;;;;5023954;28;20216;-72
2023/04/30 08:22:50;;;;;;;1.73;1.63;;;;;19.00;97014.00;;;;5025042;28;20197;-73
2023/04/30 08:25:39;;;;;;;1.87;1.67;;;;;19.10;97024.00;;;;5026415;28;20315;-72
2023/04/30 08:28:28;;;;;;;2.50;1.83;;;;;19.00;97016.00;;;;5022829;28;20795;-72
2023/04/30 08:31:18;;;;;;;1.50;1.40;;;;;18.80;97012.00;;;;5021957;28;20574;-72
2023/04/30 08:34:08;;;;;;;1.70;1.40;;;;;18.90;97024.00;;;;5025136;28;20205;-73
2023/04/30 08:36:58;;;;;;;1.90;1.50;;;;;19.40;97022.00;;;;5021493;28;20228;-72
2023/04/30 08:39:47;;;;;;;1.43;1.33;;;;;19.10;97026.00;;;;5023780;28;20201;-74
2023/04/30 08:42:38;;;;;;;1.87;1.77;;;;;18.90;97011.00;;;;5022295;28;20205;-72
2023/04/30 08:45:27;;;;;;;1.83;1.63;;;;;19.00;97024.00;;;;5021472;28;20318;-73
2023/04/30 08:48:16;;;;;;;2.83;1.30;;;;;19.00;97026.00;;;;5019082;28;20774;-73
2023/04/30 08:51:07;;;;;;;2.63;1.57;;;;;18.60;97011.00;;;;5020431;28;20212;-74
2023/04/30 08:53:57;;;;;;;1.47;1.37;;;;;18.90;97019.00;;;;5024736;28;20205;-73
2023/04/30 08:56:47;;;;;;;1.80;1.47;;;;;19.60;97020.00;;;;5010355;28;20229;-72
2023/04/30 08:59:35;;;;;;;2.70;1.37;;;;;19.20;97032.00;;;;5019828;28;20314;-73
2023/04/30 09:02:24;;;;;;;1.53;1.43;;;;;19.20;97022.00;;;;5025312;28;21162;-73
2023/04/30 09:05:15;;;;;;;3.43;1.37;;;;;19.40;97023.00;;;;5023874;28;20235;-73
2023/04/30 09:08:07;;;;;;;2.70;1.73;;;;;20.30;97026.00;;;;5022163;28;20687;-72
2023/04/30 09:10:56;;;;;;;2.30;1.57;;;;;20.50;97013.00;;;;5015609;28;20216;-71
2023/04/30 09:13:45;;;;;;;1.23;1.13;;;;;20.70;97031.00;;;;5022317;28;20202;-72
2023/04/30 09:16:46;;;;;;;2.03;1.23;;;;;19.80;97018.00;;;;5025307;28;20244;-72
2023/04/30 09:19:36;;;;;;;1.10;1.00;;;;;20.30;97027.00;;;;5021546;28;20224;-74
2023/04/30 09:22:25;;;;;;;1.63;1.40;;;;;20.30;97034.00;;;;5023583;28;20205;-73
2023/04/30 09:25:15;;;;;;;2.17;1.53;;;;;20.00;97041.00;;;;5022798;28;20221;-73
2023/04/30 09:28:11;;;;;;;1.70;1.60;;;;;19.90;97040.00;;;;5023957;28;20267;-73
2023/04/30 09:31:00;;;;;;;1.90;1.70;;;;;19.90;97037.00;;;;5028134;28;20258;-73
2023/04/30 09:33:49;;;;;;;1.37;1.27;;;;;20.00;97038.00;;;;5034424;28;20209;-71
2023/04/30 09:36:38;;;;;;;1.67;1.33;;;;;19.70;97023.00;;;;5033561;28;20228;-72
2023/04/30 09:39:27;;;;;;;1.47;1.37;;;;;20.20;97018.00;;;;5036196;28;21690;-73
2023/04/30 09:42:19;;;;;;;3.40;1.57;;;;;21.00;96989.00;;;;5031528;28;20201;-73
2023/04/30 09:45:10;;;;;;;2.00;1.80;;;;;22.30;96986.00;;;;5029492;28;20302;-72
2023/04/30 09:48:01;;;;;;;1.33;1.23;;;;;22.30;96988.00;;;;5034025;28;20201;-74
2023/04/30 09:50:57;;;;;;;2.27;1.60;;;;;23.20;96985.00;;;;5027448;28;20197;-71
2023/04/30 09:53:46;;;;;;;1.53;1.20;;;;;24.00;97006.00;;;;5037742;28;20201;-70
2023/04/30 09:56:36;;;;;;;1.40;1.30;;;;;23.30;96978.00;;;;5030087;28;20322;-69
2023/04/30 09:59:30;;;;;;;1.20;1.10;;;;;24.10;96973.00;;;;5042269;28;20219;-72
2023/04/30 10:02:21;;;;;;;1.93;1.77;;;;;22.80;96978.00;;;;5021187;28;20197;-73
2023/04/30 10:05:11;;;;;;;2.53;2.33;;;;;23.90;96983.00;;;;5036573;28;20225;-73
2023/04/30 10:08:00;;;;;;;1.63;1.53;;;;;24.30;96969.00;;;;5025426;28;20209;-73
2023/04/30 10:10:52;;;;;;;3.40;1.60;;;;;24.20;96968.00;;;;5028561;28;20239;-71
2023/04/30 10:13:45;;;;;;;6.97;6.33;;;;;24.90;96956.00;;;;5027979;28;20296;-72
2023/04/30 10:16:43;;;;;;;3.13;1.30;;;;;24.80;96951.00;;;;5026353;28;20237;-71
2023/04/30 10:19:33;;;;;;;1.77;1.10;;;;;23.90;96947.00;;;;5027129;28;20213;-72
2023/04/30 10:22:22;;;;;;;1.37;1.10;;;;;24.70;96930.00;;;;5029680;28;20201;-73
2023/04/30 10:25:12;;;;;;;2.13;1.43;;;;;24.60;96978.00;;;;5028269;28;20301;-72
2023/04/30 10:28:01;;;;;;;7.20;4.43;;;;;23.80;96973.00;;;;5024023;28;20695;-73
2023/04/30 10:30:52;;;;;;;1.77;1.00;;;;;22.10;96982.00;;;;5034452;28;20904;-74
2023/04/30 10:33:49;;;;;;;1.63;1.27;;;;;21.70;96985.00;;;;5027418;28;20201;-73
2023/04/30 10:36:41;;;;;;;1.93;1.60;;;;;21.40;96978.00;;;;5029082;28;20224;-73
2023/04/30 10:39:30;;;;;;;4.27;1.47;;;;;22.40;96935.00;;;;5024546;28;20205;-73
2023/04/30 10:42:19;;;;;;;1.40;1.30;;;;;23.70;96952.00;;;;5025309;28;20271;-72
2023/04/30 10:45:11;;;;;;;44.93;35.57;;;;;24.70;96921.00;;;;5029582;28;20273;-70
2023/04/30 10:48:02;;;;;;;38.67;32.87;;;;;24.20;96919.00;;;;5023423;28;20241;-69
2023/04/30 10:50:55;;;;;;;142.23;111.73;;;;;25.90;96959.00;;;;5029608;28;21367;-70
2023/04/30 10:53:45;;;;;;;10.70;6.47;;;;;23.20;96954.00;;;;5042519;28;20201;-74
2023/04/30 10:56:35;;;;;;;1.70;1.60;;;;;24.30;96909.00;;;;5028895;28;20220;-69
2023/04/30 10:59:24;;;;;;;2.53;1.33;;;;;25.10;96913.00;;;;5029223;28;20217;-71
2023/04/30 11:02:15;;;;;;;3.77;1.40;;;;;26.40;96906.00;;;;5033741;28;20255;-70
2023/04/30 11:05:12;;;;;;;1.43;1.33;;;;;26.80;96911.00;;;;5027731;28;20221;-71
2023/04/30 11:08:03;;;;;;;3.17;1.57;;;;;26.90;96906.00;;;;5030250;28;20201;-70
2023/04/30 11:10:59;;;;;;;2.30;1.20;;;;;27.10;96941.00;;;;5033346;28;20216;-70
2023/04/30 11:13:53;;;;;;;1.90;1.70;;;;;26.90;96906.00;;;;5026094;28;20334;-73
2023/04/30 11:16:42;;;;;;;1.53;1.23;;;;;24.70;96964.00;;;;5024367;28;20223;-72
2023/04/30 11:19:33;;;;;;;2.67;1.10;;;;;24.70;96957.00;;;;5023927;28;20662;-69
2023/04/30 11:22:23;;;;;;;1.70;1.30;;;;;24.60;96898.00;;;;5022289;28;20205;-74
2023/04/30 11:25:18;;;;;;;2.63;1.00;;;;;26.60;96895.00;;;;5019911;28;20221;-73
2023/04/30 11:28:08;;;;;;;1.97;1.27;;;;;28.10;96963.00;;;;5026555;28;20602;-73
2023/04/30 11:30:58;;;;;;;4.17;1.60;;;;;26.70;96965.00;;;;5016206;28;20723;-72
2023/04/30 11:33:48;;;;;;;2.60;2.07;;;;;25.70;96961.00;;;;5027516;28;20273;-72
2023/04/30 11:36:38;;;;;;;1.40;1.30;;;;;25.10;96965.00;;;;5014705;28;20230;-73
2023/04/30 11:39:29;;;;;;;2.17;2.07;;;;;24.00;96964.00;;;;5019198;28;20736;-74
2023/04/30 11:42:20;;;;;;;2.83;1.80;;;;;22.50;96982.00;;;;5026293;28;20201;-70
2023/04/30 11:45:10;;;;;;;2.03;1.90;;;;;22.30;96971.00;;;;5022026;28;20323;-72
2023/04/30 11:47:59;;;;;;;2.43;2.10;;;;;22.30;96970.00;;;;5010335;28;20230;-71
2023/04/30 11:50:49;;;;;;;3.40;2.50;;;;;20.90;96963.00;;;;5026635;28;20685;-72
2023/04/30 11:53:38;;;;;;;2.37;2.17;;;;;21.30;96972.00;;;;5031270;28;20197;-72
2023/04/30 11:56:27;;;;;;;3.10;2.20;;;;;21.90;96970.00;;;;5024096;28;20261;-70
2023/04/30 11:59:19;;;;;;;3.93;2.43;;;;;22.10;96968.00;;;;5019803;28;20210;-71
2023/04/30 12:02:09;;;;;;;2.10;1.90;;;;;22.50;96977.00;;;;5026565;28;20218;-72
2023/04/30 12:04:59;;;;;;;2.37;2.17;;;;;21.70;96974.00;;;;5030204;28;20204;-72
2023/04/30 12:07:50;;;;;;;2.03;1.83;;;;;21.70;96969.00;;;;5030612;28;20205;-73
2023/04/30 12:10:39;;;;;;;6.90;2.60;;;;;22.50;96889.00;;;;5029037;28;20201;-72
2023/04/30 12:13:28;;;;;;;2.67;2.47;;;;;25.60;96905.00;;;;5027321;28;20205;-72
2023/04/30 12:16:18;;;;;;;2.67;2.47;;;;;24.30;96964.00;;;;5035802;28;20688;-72
2023/04/30 12:19:08;;;;;;;3.30;2.37;;;;;23.60;96967.00;;;;5032892;28;20207;-72
2023/04/30 12:21:57;;;;;;;4.07;2.83;;;;;23.10;96960.00;;;;5022666;28;20204;-73
2023/04/30 12:24:46;;;;;;;3.93;2.20;;;;;23.00;96946.00;;;;5025664;28;20267;-73
2023/04/30 12:27:35;;;;;;;3.73;1.93;;;;;22.90;96959.00;;;;5031964;28;20299;-73
2023/04/30 12:30:26;;;;;;;2.93;2.63;;;;;22.20;96961.00;;;;5029908;28;20219;-73
2023/04/30 12:33:18;;;;;;;2.83;2.33;;;;;22.20;96960.00;;;;5035850;28;20200;-72
2023/04/30 12:36:11;;;;;;;2.10;1.80;;;;;22.40;96962.00;;;;5047607;28;20634;-72
2023/04/30 12:39:10;;;;;;;3.30;2.07;;;;;22.70;96953.00;;;;5020611;28;20204;-73
2023/04/30 12:42:01;;;;;;;1.90;1.80;;;;;22.60;96949.00;;;;5023486;28;20201;-73
2023/04/30 12:44:50;;;;;;;2.30;2.10;;;;;22.60;96945.00;;;;5029526;28;20194;-73
2023/04/30 12:47:40;;;;;;;2.47;2.27;;;;;23.20;96923.00;;;;5017853;28;20308;-72
2023/04/30 12:50:31;;;;;;;1.97;1.77;;;;;25.10;96865.00;;;;5041686;28;20279;-73
2023/04/30 12:53:20;;;;;;;4.80;2.20;;;;;26.40;96871.00;;;;5040693;28;20232;-72
2023/04/30 12:56:10;;;;;;;2.53;2.00;;;;;27.90;96868.00;;;;5029575;28;20240;-71
2023/04/30 12:58:59;;;;;;;2.00;1.80;;;;;29.20;96879.00;;;;5031714;28;20282;-72
2023/04/30 13:01:48;;;;;;;2.07;1.80;;;;;27.00;96934.00;;;;5037208;28;20246;-73
2023/04/30 13:04:38;;;;;;;4.73;1.83;;;;;24.60;96928.00;;;;5031493;28;20213;-73
2023/04/30 13:07:38;;;;;;;2.50;2.30;;;;;24.00;96924.00;;;;5037051;28;20295;-73
2023/04/30 13:10:27;;;;;;;2.10;1.83;;;;;22.80;96929.00;;;;5030881;28;20204;-72
2023/04/30 13:13:18;;;;;;;3.17;2.17;;;;;21.70;96917.00;;;;5028684;28;20252;-73
2023/04/30 13:16:08;;;;;;;1.80;1.70;;;;;22.30;96926.00;;;;5037157;28;20605;-73
2023/04/30 13:18:56;;;;;;;3.43;2.30;;;;;21.80;96920.00;;;;5027684;28;20212;-71
2023/04/30 13:21:46;;;;;;;2.80;2.60;;;;;21.70;96921.00;;;;5031398;28;20965;-71
2023/04/30 13:24:36;;;;;;;3.10;2.40;;;;;21.70;96919.00;;;;5035231;28;20284;-71
2023/04/30 13:27:25;;;;;;;2.27;1.60;;;;;21.60;96908.00;;;;5049013;28;20692;-71
2023/04/30 13:30:14;;;;;;;2.17;1.97;;;;;22.30;96906.00;;;;5026101;28;20202;-72
2023/04/30 13:33:03;;;;;;;2.27;1.97;;;;;22.20;96914.00;;;;5033333;28;20201;-73
2023/04/30 13:35:52;;;;;;;2.30;2.10;;;;;21.70;96908.00;;;;5036531;28;20229;-72
2023/04/30 13:38:41;;;;;;;2.27;2.07;;;;;21.40;96912.00;;;;5027170;28;20271;-73
2023/04/30 13:41:32;;;;;;;3.60;2.73;;;;;22.10;96920.00;;;;5026048;28;20203;-73
2023/04/30 13:44:21;;;;;;;2.43;2.23;;;;;22.40;96909.00;;;;5021974;28;20687;-73
2023/04/30 13:47:10;;;;;;;2.70;2.03;;;;;22.40;96903.00;;;;5025909;28;20221;-73
2023/04/30 13:49:59;;;;;;;2.70;2.40;;;;;21.40;96906.00;;;;5022533;28;20197;-72
2023/04/30 13:52:48;;;;;;;2.00;1.80;;;;;20.90;96911.00;;;;5024166;28;20198;-70
2023/04/30 13:55:37;;;;;;;2.40;2.20;;;;;20.30;96909.00;;;;5020695;28;20714;-70
2023/04/30 13:58:28;;;;;;;1.93;1.70;;;;;20.30;96905.00;;;;5041880;28;20766;-73
2023/04/30 14:01:17;;;;;;;3.07;2.47;;;;;21.50;96909.00;;;;5033614;28;20347;-73
2023/04/30 14:04:07;;;;;;;2.30;2.10;;;;;22.00;96898.00;;;;5021220;28;20824;-73
2023/04/30 14:06:56;;;;;;;3.27;1.70;;;;;22.00;96898.00;;;;5034887;28;20220;-73
2023/04/30 14:09:45;;;;;;;2.60;1.73;;;;;22.30;96903.00;;;;5037477;28;20259;-72
2023/04/30 14:12:34;;;;;;;2.20;1.93;;;;;23.30;96898.00;;;;5042334;28;20204;-73